sensor_id;sensor_type;location;lat;lon;timestamp;temperature;humidity
47779;DHT22;33538;48.432;11.350;2022-09-01T00:00:53;18.80;96.80
47779;DHT22;33538;48.432;11.350;2022-09-01T00:03:20;18.80;96.50
47779;DHT22;33538;48.432;11.350;2022-09-01T00:05:47;18.80;97.10
47779;DHT22;33538;48.432;11.350;2022-09-01T00:08:15;18.70;96.60
47779;DHT22;33538;48.432;11.350;2022-09-01T00:10:44;18.60;96.90
47779;DHT22;33538;48.432;11.350;2022-09-01T00:13:11;18.70;96.80
47779;DHT22;33538;48.432;11.350;2022-09-01T00:15:38;18.60;96.70
47779;DHT22;33538;48.432;11.350;2022-09-01T00:18:05;18.70;96.80
47779;DHT22;33538;48.432;11.350;2022-09-01T00:20:32;18.70;96.90
47779;DHT22;33538;48.432;11.350;2022-09-01T00:22:59;18.70;97.00
47779;DHT22;33538;48.432;11.350;2022-09-01T00:25:27;18.70;96.80
47779;DHT22;33538;48.432;11.350;2022-09-01T00:27:54;18.70;97.20
47779;DHT22;33538;48.432;11.350;2022-09-01T00:30:22;18.70;96.80
47779;DHT22;33538;48.432;11.350;2022-09-01T00:32:49;18.70;96.50
47779;DHT22;33538;48.432;11.350;2022-09-01T00:35:17;18.70;96.40
47779;DHT22;33538;48.432;11.350;2022-09-01T00:37:44;18.60;96.50
47779;DHT22;33538;48.432;11.350;2022-09-01T00:40:14;18.60;96.60
47779;DHT22;33538;48.432;11.350;2022-09-01T00:42:43;18.70;96.50
47779;DHT22;33538;48.432;11.350;2022-09-01T00:45:10;18.60;96.80
47779;DHT22;33538;48.432;11.350;2022-09-01T00:47:37;18.50;96.90
47779;DHT22;33538;48.432;11.350;2022-09-01T00:50:06;18.60;96.90
47779;DHT22;33538;48.432;11.350;2022-09-01T00:52:34;18.50;96.70
47779;DHT22;33538;48.432;11.350;2022-09-01T00:55:07;18.50;96.60
47779;DHT22;33538;48.432;11.350;2022-09-01T00:57:35;18.60;96.60
47779;DHT22;33538;48.432;11.350;2022-09-01T01:00:07;18.50;97.10
47779;DHT22;33538;48.432;11.350;2022-09-01T01:02:34;18.50;96.90
47779;DHT22;33538;48.432;11.350;2022-09-01T01:05:03;18.40;97.40
47779;DHT22;33538;48.432;11.350;2022-09-01T01:07:30;18.40;97.00
47779;DHT22;33538;48.432;11.350;2022-09-01T01:09:57;18.50;97.00
47779;DHT22;33538;48.432;11.350;2022-09-01T01:12:24;18.50;96.80
47779;DHT22;33538;48.432;11.350;2022-09-01T01:14:51;18.40;97.50
47779;DHT22;33538;48.432;11.350;2022-09-01T01:17:21;18.50;96.80
47779;DHT22;33538;48.432;11.350;2022-09-01T01:19:50;18.40;96.90
47779;DHT22;33538;48.432;11.350;2022-09-01T01:22:48;18.30;97.30
47779;DHT22;33538;48.432;11.350;2022-09-01T01:25:20;18.30;97.40
47779;DHT22;33538;48.432;11.350;2022-09-01T01:27:47;18.30;97.50
47779;DHT22;33538;48.432;11.350;2022-09-01T01:30:15;18.40;97.60
47779;DHT22;33538;48.432;11.350;2022-09-01T01:32:43;18.50;97.10
47779;DHT22;33538;48.432;11.350;2022-09-01T01:35:11;18.50;96.70
47779;DHT22;33538;48.432;11.350;2022-09-01T01:37:38;18.40;97.10
47779;DHT22;33538;48.432;11.350;2022-09-01T01:40:06;18.30;97.10
47779;DHT22;33538;48.432;11.350;2022-09-01T01:42:34;18.40;96.80
47779;DHT22;33538;48.432;11.350;2022-09-01T01:45:01;18.30;96.80
47779;DHT22;33538;48.432;11.350;2022-09-01T01:47:28;18.40;96.90
47779;DHT22;33538;48.432;11.350;2022-09-01T01:49:55;18.40;96.80
47779;DHT22;33538;48.432;11.350;2022-09-01T01:52:22;18.40;97.00
47779;DHT22;33538;48.432;11.350;2022-09-01T01:54:52;18.40;96.90
47779;DHT22;33538;48.432;11.350;2022-09-01T01:57:19;18.40;97.50
47779;DHT22;33538;48.432;11.350;2022-09-01T01:59:47;18.30;96.90
47779;DHT22;33538;48.432;11.350;2022-09-01T02:02:14;18.30;97.40
47779;DHT22;33538;48.432;11.350;2022-09-01T02:04:41;18.30;97.10
47779;DHT22;33538;48.432;11.350;2022-09-01T02:07:09;18.20;97.10
47779;DHT22;33538;48.432;11.350;2022-09-01T02:09:37;18.30;96.90
47779;DHT22;33538;48.432;11.350;2022-09-01T02:12:04;18.40;96.80
47779;DHT22;33538;48.432;11.350;2022-09-01T02:14:31;18.40;97.00
47779;DHT22;33538;48.432;11.350;2022-09-01T02:16:59;18.30;96.80
47779;DHT22;33538;48.432;11.350;2022-09-01T02:19:26;18.30;96.90
47779;DHT22;33538;48.432;11.350;2022-09-01T02:21:53;18.30;96.70
47779;DHT22;33538;48.432;11.350;2022-09-01T02:24:21;18.30;96.60
47779;DHT22;33538;48.432;11.350;2022-09-01T02:26:48;18.30;97.00
47779;DHT22;33538;48.432;11.350;2022-09-01T02:29:18;18.30;96.60
47779;DHT22;33538;48.432;11.350;2022-09-01T02:31:47;18.30;96.60
47779;DHT22;33538;48.432;11.350;2022-09-01T02:34:16;18.30;97.20
47779;DHT22;33538;48.432;11.350;2022-09-01T02:36:45;18.30;96.90
47779;DHT22;33538;48.432;11.350;2022-09-01T02:39:13;18.30;97.30
47779;DHT22;33538;48.432;11.350;2022-09-01T02:41:40;18.30;96.70
47779;DHT22;33538;48.432;11.350;2022-09-01T02:44:07;18.30;96.70
47779;DHT22;33538;48.432;11.350;2022-09-01T02:46:34;18.30;96.60
47779;DHT22;33538;48.432;11.350;2022-09-01T02:49:01;18.30;96.80
47779;DHT22;33538;48.432;11.350;2022-09-01T02:51:29;18.30;97.10
47779;DHT22;33538;48.432;11.350;2022-09-01T02:53:56;18.30;96.80
47779;DHT22;33538;48.432;11.350;2022-09-01T02:56:24;18.20;96.90
47779;DHT22;33538;48.432;11.350;2022-09-01T02:58:52;18.20;97.80
47779;DHT22;33538;48.432;11.350;2022-09-01T03:01:21;18.30;97.40
47779;DHT22;33538;48.432;11.350;2022-09-01T03:03:49;18.20;97.30
47779;DHT22;33538;48.432;11.350;2022-09-01T03:06:17;18.20;97.30
47779;DHT22;33538;48.432;11.350;2022-09-01T03:08:46;18.30;96.70
47779;DHT22;33538;48.432;11.350;2022-09-01T03:11:13;18.30;97.00
47779;DHT22;33538;48.432;11.350;2022-09-01T03:13:41;18.30;96.70
47779;DHT22;33538;48.432;11.350;2022-09-01T03:16:08;18.30;96.70
47779;DHT22;33538;48.432;11.350;2022-09-01T03:18:36;18.20;96.70
47779;DHT22;33538;48.432;11.350;2022-09-01T03:21:06;18.30;96.80
47779;DHT22;33538;48.432;11.350;2022-09-01T03:23:33;18.20;96.70
47779;DHT22;33538;48.432;11.350;2022-09-01T03:26:01;18.20;96.80
47779;DHT22;33538;48.432;11.350;2022-09-01T03:28:28;18.20;96.60
47779;DHT22;33538;48.432;11.350;2022-09-01T03:30:56;18.20;96.80
47779;DHT22;33538;48.432;11.350;2022-09-01T03:33:25;18.20;96.50
47779;DHT22;33538;48.432;11.350;2022-09-01T03:35:53;18.20;97.00
47779;DHT22;33538;48.432;11.350;2022-09-01T03:38:20;18.20;97.10
47779;DHT22;33538;48.432;11.350;2022-09-01T03:40:49;18.20;96.90
47779;DHT22;33538;48.432;11.350;2022-09-01T03:43:18;18.20;97.60
47779;DHT22;33538;48.432;11.350;2022-09-01T03:45:45;18.20;96.60
47779;DHT22;33538;48.432;11.350;2022-09-01T03:48:12;18.20;96.90
47779;DHT22;33538;48.432;11.350;2022-09-01T03:50:40;18.20;96.50
47779;DHT22;33538;48.432;11.350;2022-09-01T03:53:07;18.20;97.00
47779;DHT22;33538;48.432;11.350;2022-09-01T03:55:35;18.20;97.20
47779;DHT22;33538;48.432;11.350;2022-09-01T03:58:05;18.10;96.50
47779;DHT22;33538;48.432;11.350;2022-09-01T04:00:39;18.20;96.60
47779;DHT22;33538;48.432;11.350;2022-09-01T04:03:14;18.10;97.00
47779;DHT22;33538;48.432;11.350;2022-09-01T04:05:43;18.00;97.40
47779;DHT22;33538;48.432;11.350;2022-09-01T04:08:10;18.10;96.90
47779;DHT22;33538;48.432;11.350;2022-09-01T04:10:44;18.00;96.70
47779;DHT22;33538;48.432;11.350;2022-09-01T04:13:18;18.00;97.40
47779;DHT22;33538;48.432;11.350;2022-09-01T04:15:48;17.80;98.30
47779;DHT22;33538;48.432;11.350;2022-09-01T04:18:16;17.80;98.10
47779;DHT22;33538;48.432;11.350;2022-09-01T04:20:43;17.80;98.50
47779;DHT22;33538;48.432;11.350;2022-09-01T04:23:11;17.90;97.60
47779;DHT22;33538;48.432;11.350;2022-09-01T04:25:39;18.00;97.20
47779;DHT22;33538;48.432;11.350;2022-09-01T04:28:05;18.00;97.30
47779;DHT22;33538;48.432;11.350;2022-09-01T04:30:32;17.90;97.00
47779;DHT22;33538;48.432;11.350;2022-09-01T04:33:00;17.90;97.40
47779;DHT22;33538;48.432;11.350;2022-09-01T04:35:27;17.90;97.30
47779;DHT22;33538;48.432;11.350;2022-09-01T04:37:54;17.90;96.90
47779;DHT22;33538;48.432;11.350;2022-09-01T04:40:21;17.90;96.90
47779;DHT22;33538;48.432;11.350;2022-09-01T04:42:48;18.00;97.20
47779;DHT22;33538;48.432;11.350;2022-09-01T04:45:16;18.10;97.00
47779;DHT22;33538;48.432;11.350;2022-09-01T04:47:46;18.00;97.50
47779;DHT22;33538;48.432;11.350;2022-09-01T04:50:15;18.10;97.40
47779;DHT22;33538;48.432;11.350;2022-09-01T04:52:42;18.00;97.00
47779;DHT22;33538;48.432;11.350;2022-09-01T04:55:10;18.00;97.10
47779;DHT22;33538;48.432;11.350;2022-09-01T04:57:37;18.00;96.90
47779;DHT22;33538;48.432;11.350;2022-09-01T05:00:04;18.00;96.80
47779;DHT22;33538;48.432;11.350;2022-09-01T05:02:31;18.00;96.80
47779;DHT22;33538;48.432;11.350;2022-09-01T05:04:58;18.00;97.10
47779;DHT22;33538;48.432;11.350;2022-09-01T05:07:26;18.00;97.30
47779;DHT22;33538;48.432;11.350;2022-09-01T05:09:53;18.00;97.10
47779;DHT22;33538;48.432;11.350;2022-09-01T05:12:26;17.90;97.00
47779;DHT22;33538;48.432;11.350;2022-09-01T05:14:53;17.90;97.50
47779;DHT22;33538;48.432;11.350;2022-09-01T05:17:20;17.90;97.60
47779;DHT22;33538;48.432;11.350;2022-09-01T05:19:47;18.00;97.20
47779;DHT22;33538;48.432;11.350;2022-09-01T05:22:15;18.00;97.10
47779;DHT22;33538;48.432;11.350;2022-09-01T05:24:43;18.10;96.90
47779;DHT22;33538;48.432;11.350;2022-09-01T05:27:10;18.10;96.50
47779;DHT22;33538;48.432;11.350;2022-09-01T05:29:37;18.00;96.40
47779;DHT22;33538;48.432;11.350;2022-09-01T05:32:04;18.00;97.20
47779;DHT22;33538;48.432;11.350;2022-09-01T05:34:31;18.00;96.80
47779;DHT22;33538;48.432;11.350;2022-09-01T05:36:58;18.00;97.00
47779;DHT22;33538;48.432;11.350;2022-09-01T05:39:26;18.00;97.50
47779;DHT22;33538;48.432;11.350;2022-09-01T05:41:54;18.00;97.00
47779;DHT22;33538;48.432;11.350;2022-09-01T05:44:21;18.00;97.20
47779;DHT22;33538;48.432;11.350;2022-09-01T05:46:49;18.00;97.10
47779;DHT22;33538;48.432;11.350;2022-09-01T05:49:16;18.00;97.50
47779;DHT22;33538;48.432;11.350;2022-09-01T05:51:45;17.90;97.50
47779;DHT22;33538;48.432;11.350;2022-09-01T05:54:19;18.00;97.60
47779;DHT22;33538;48.432;11.350;2022-09-01T05:56:46;18.00;97.10
47779;DHT22;33538;48.432;11.350;2022-09-01T05:59:15;17.90;97.30
47779;DHT22;33538;48.432;11.350;2022-09-01T06:01:51;17.90;97.30
47779;DHT22;33538;48.432;11.350;2022-09-01T06:04:18;18.00;97.40
47779;DHT22;33538;48.432;11.350;2022-09-01T06:06:47;17.90;97.20
47779;DHT22;33538;48.432;11.350;2022-09-01T06:09:36;18.00;97.10
47779;DHT22;33538;48.432;11.350;2022-09-01T06:12:03;18.00;97.20
47779;DHT22;33538;48.432;11.350;2022-09-01T06:14:31;18.00;97.60
47779;DHT22;33538;48.432;11.350;2022-09-01T06:16:58;18.10;97.20
47779;DHT22;33538;48.432;11.350;2022-09-01T06:19:24;18.00;97.30
47779;DHT22;33538;48.432;11.350;2022-09-01T06:21:51;18.00;97.80
47779;DHT22;33538;48.432;11.350;2022-09-01T06:24:18;17.80;98.90
47779;DHT22;33538;48.432;11.350;2022-09-01T06:26:45;17.90;98.10
47779;DHT22;33538;48.432;11.350;2022-09-01T06:29:12;17.90;97.70
47779;DHT22;33538;48.432;11.350;2022-09-01T06:31:41;18.00;97.90
47779;DHT22;33538;48.432;11.350;2022-09-01T06:34:09;17.90;98.10
47779;DHT22;33538;48.432;11.350;2022-09-01T06:36:37;17.90;98.30
47779;DHT22;33538;48.432;11.350;2022-09-01T06:39:05;17.90;97.90
47779;DHT22;33538;48.432;11.350;2022-09-01T06:41:32;17.90;98.40
47779;DHT22;33538;48.432;11.350;2022-09-01T06:43:58;18.00;98.10
47779;DHT22;33538;48.432;11.350;2022-09-01T06:46:25;17.90;98.00
47779;DHT22;33538;48.432;11.350;2022-09-01T06:48:54;18.00;98.00
47779;DHT22;33538;48.432;11.350;2022-09-01T06:51:21;18.00;98.10
47779;DHT22;33538;48.432;11.350;2022-09-01T06:53:50;18.00;98.00
47779;DHT22;33538;48.432;11.350;2022-09-01T06:56:17;18.10;98.10
47779;DHT22;33538;48.432;11.350;2022-09-01T06:58:45;18.00;97.90
47779;DHT22;33538;48.432;11.350;2022-09-01T07:01:13;18.00;98.30
47779;DHT22;33538;48.432;11.350;2022-09-01T07:03:41;18.00;98.10
47779;DHT22;33538;48.432;11.350;2022-09-01T07:06:10;18.10;97.60
47779;DHT22;33538;48.432;11.350;2022-09-01T07:08:58;18.10;97.70
47779;DHT22;33538;48.432;11.350;2022-09-01T07:11:45;18.10;98.00
47779;DHT22;33538;48.432;11.350;2022-09-01T07:14:32;18.10;98.20
47779;DHT22;33538;48.432;11.350;2022-09-01T07:16:59;18.00;98.40
47779;DHT22;33538;48.432;11.350;2022-09-01T07:19:45;18.00;98.40
47779;DHT22;33538;48.432;11.350;2022-09-01T07:22:15;18.10;98.40
47779;DHT22;33538;48.432;11.350;2022-09-01T07:25:03;18.10;98.50
47779;DHT22;33538;48.432;11.350;2022-09-01T07:27:38;18.10;98.60
47779;DHT22;33538;48.432;11.350;2022-09-01T07:30:07;18.10;98.20
47779;DHT22;33538;48.432;11.350;2022-09-01T07:32:35;18.10;98.10
47779;DHT22;33538;48.432;11.350;2022-09-01T07:35:15;18.00;98.40
47779;DHT22;33538;48.432;11.350;2022-09-01T07:37:44;18.10;98.20
47779;DHT22;33538;48.432;11.350;2022-09-01T07:40:31;18.10;98.20
47779;DHT22;33538;48.432;11.350;2022-09-01T07:43:20;18.10;97.90
47779;DHT22;33538;48.432;11.350;2022-09-01T07:45:49;18.10;97.90
47779;DHT22;33538;48.432;11.350;2022-09-01T07:48:26;18.10;98.00
47779;DHT22;33538;48.432;11.350;2022-09-01T07:51:14;18.20;97.60
47779;DHT22;33538;48.432;11.350;2022-09-01T07:54:02;18.20;97.80
47779;DHT22;33538;48.432;11.350;2022-09-01T07:56:29;18.20;97.70
47779;DHT22;33538;48.432;11.350;2022-09-01T07:58:56;18.10;97.90
47779;DHT22;33538;48.432;11.350;2022-09-01T08:01:25;18.20;98.00
47779;DHT22;33538;48.432;11.350;2022-09-01T08:03:54;18.20;97.70
47779;DHT22;33538;48.432;11.350;2022-09-01T08:06:23;18.20;97.60
47779;DHT22;33538;48.432;11.350;2022-09-01T08:08:54;18.30;97.50
47779;DHT22;33538;48.432;11.350;2022-09-01T08:11:25;18.30;97.10
47779;DHT22;33538;48.432;11.350;2022-09-01T08:14:13;18.30;96.80
47779;DHT22;33538;48.432;11.350;2022-09-01T08:16:39;18.40;96.80
47779;DHT22;33538;48.432;11.350;2022-09-01T08:19:17;18.40;96.40
47779;DHT22;33538;48.432;11.350;2022-09-01T08:21:44;18.40;96.30
47779;DHT22;33538;48.432;11.350;2022-09-01T08:24:11;18.40;96.40
47779;DHT22;33538;48.432;11.350;2022-09-01T08:26:39;18.40;96.60
47779;DHT22;33538;48.432;11.350;2022-09-01T08:29:06;18.40;96.70
47779;DHT22;33538;48.432;11.350;2022-09-01T08:31:33;18.30;96.80
47779;DHT22;33538;48.432;11.350;2022-09-01T08:33:59;18.40;96.60
47779;DHT22;33538;48.432;11.350;2022-09-01T08:36:26;18.40;96.50
47779;DHT22;33538;48.432;11.350;2022-09-01T08:38:53;18.40;96.80
47779;DHT22;33538;48.432;11.350;2022-09-01T08:41:31;18.50;96.70
47779;DHT22;33538;48.432;11.350;2022-09-01T08:44:10;18.50;96.80
47779;DHT22;33538;48.432;11.350;2022-09-01T08:46:40;18.50;96.70
47779;DHT22;33538;48.432;11.350;2022-09-01T08:49:13;18.50;96.20
47779;DHT22;33538;48.432;11.350;2022-09-01T08:52:01;18.60;96.10
47779;DHT22;33538;48.432;11.350;2022-09-01T08:54:37;18.60;95.90
47779;DHT22;33538;48.432;11.350;2022-09-01T08:57:10;18.70;95.30
47779;DHT22;33538;48.432;11.350;2022-09-01T08:59:41;18.70;95.30
47779;DHT22;33538;48.432;11.350;2022-09-01T09:02:23;18.70;95.20
47779;DHT22;33538;48.432;11.350;2022-09-01T09:04:59;18.70;95.10
47779;DHT22;33538;48.432;11.350;2022-09-01T09:07:57;18.70;95.10
47779;DHT22;33538;48.432;11.350;2022-09-01T09:10:39;18.80;95.00
47779;DHT22;33538;48.432;11.350;2022-09-01T09:13:13;18.80;94.80
47779;DHT22;33538;48.432;11.350;2022-09-01T09:15:51;18.80;94.80
47779;DHT22;33538;48.432;11.350;2022-09-01T09:18:37;18.80;94.60
47779;DHT22;33538;48.432;11.350;2022-09-01T09:21:13;18.80;94.50
47779;DHT22;33538;48.432;11.350;2022-09-01T09:23:44;18.80;94.50
47779;DHT22;33538;48.432;11.350;2022-09-01T09:26:11;18.80;94.40
47779;DHT22;33538;48.432;11.350;2022-09-01T09:28:42;18.80;94.60
47779;DHT22;33538;48.432;11.350;2022-09-01T09:31:28;18.80;94.50
47779;DHT22;33538;48.432;11.350;2022-09-01T09:33:55;18.80;94.40
47779;DHT22;33538;48.432;11.350;2022-09-01T09:36:29;18.90;94.30
47779;DHT22;33538;48.432;11.350;2022-09-01T09:39:08;18.90;94.10
47779;DHT22;33538;48.432;11.350;2022-09-01T09:41:36;18.90;94.10
47779;DHT22;33538;48.432;11.350;2022-09-01T09:44:06;18.90;94.00
47779;DHT22;33538;48.432;11.350;2022-09-01T09:46:42;19.00;94.00
47779;DHT22;33538;48.432;11.350;2022-09-01T09:49:14;19.00;94.00
47779;DHT22;33538;48.432;11.350;2022-09-01T09:51:42;19.00;93.90
47779;DHT22;33538;48.432;11.350;2022-09-01T09:54:16;19.00;93.90
47779;DHT22;33538;48.432;11.350;2022-09-01T09:56:44;19.00;93.90
47779;DHT22;33538;48.432;11.350;2022-09-01T09:59:22;19.00;94.00
47779;DHT22;33538;48.432;11.350;2022-09-01T10:02:21;19.00;93.70
47779;DHT22;33538;48.432;11.350;2022-09-01T10:04:54;19.00;93.50
47779;DHT22;33538;48.432;11.350;2022-09-01T10:07:24;19.00;93.40
47779;DHT22;33538;48.432;11.350;2022-09-01T10:09:53;19.00;93.60
47779;DHT22;33538;48.432;11.350;2022-09-01T10:12:22;19.00;93.30
47779;DHT22;33538;48.432;11.350;2022-09-01T10:14:52;19.00;93.00
47779;DHT22;33538;48.432;11.350;2022-09-01T10:17:25;19.00;93.00
47779;DHT22;33538;48.432;11.350;2022-09-01T10:19:58;19.10;92.90
47779;DHT22;33538;48.432;11.350;2022-09-01T10:22:25;19.10;93.00
47779;DHT22;33538;48.432;11.350;2022-09-01T10:24:52;19.10;92.80
47779;DHT22;33538;48.432;11.350;2022-09-01T10:27:22;19.10;92.80
47779;DHT22;33538;48.432;11.350;2022-09-01T10:29:53;19.10;92.70
47779;DHT22;33538;48.432;11.350;2022-09-01T10:32:43;19.20;92.80
47779;DHT22;33538;48.432;11.350;2022-09-01T10:35:23;19.10;92.50
47779;DHT22;33538;48.432;11.350;2022-09-01T10:37:51;19.20;92.50
47779;DHT22;33538;48.432;11.350;2022-09-01T10:40:33;19.20;92.60
47779;DHT22;33538;48.432;11.350;2022-09-01T10:43:37;19.20;92.50
47779;DHT22;33538;48.432;11.350;2022-09-01T10:46:40;19.20;92.50
47779;DHT22;33538;48.432;11.350;2022-09-01T10:50:00;19.20;92.70
47779;DHT22;33538;48.432;11.350;2022-09-01T10:52:57;19.20;92.80
47779;DHT22;33538;48.432;11.350;2022-09-01T10:58:32;19.30;92.60
47779;DHT22;33538;48.432;11.350;2022-09-01T11:05:10;19.30;92.20
47779;DHT22;33538;48.432;11.350;2022-09-01T11:07:38;19.30;92.30
47779;DHT22;33538;48.432;11.350;2022-09-01T11:10:35;19.40;92.40
47779;DHT22;33538;48.432;11.350;2022-09-01T11:13:23;19.30;92.40
47779;DHT22;33538;48.432;11.350;2022-09-01T11:15:55;19.40;92.30
47779;DHT22;33538;48.432;11.350;2022-09-01T11:18:28;19.40;92.30
47779;DHT22;33538;48.432;11.350;2022-09-01T11:21:13;19.40;92.30
47779;DHT22;33538;48.432;11.350;2022-09-01T11:23:41;19.50;91.00
47779;DHT22;33538;48.432;11.350;2022-09-01T11:29:50;19.50;91.50
47779;DHT22;33538;48.432;11.350;2022-09-01T11:32:24;19.60;91.20
47779;DHT22;33538;48.432;11.350;2022-09-01T11:34:52;19.60;90.30
47779;DHT22;33538;48.432;11.350;2022-09-01T11:37:23;19.60;90.70
47779;DHT22;33538;48.432;11.350;2022-09-01T11:39:55;19.60;90.90
47779;DHT22;33538;48.432;11.350;2022-09-01T11:42:26;19.60;90.90
47779;DHT22;33538;48.432;11.350;2022-09-01T11:44:57;19.60;90.40
47779;DHT22;33538;48.432;11.350;2022-09-01T11:47:29;19.70;90.90
47779;DHT22;33538;48.432;11.350;2022-09-01T11:49:59;19.70;90.90
47779;DHT22;33538;48.432;11.350;2022-09-01T11:52:29;19.70;90.40
47779;DHT22;33538;48.432;11.350;2022-09-01T11:54:57;19.70;90.70
47779;DHT22;33538;48.432;11.350;2022-09-01T11:57:28;19.70;90.10
47779;DHT22;33538;48.432;11.350;2022-09-01T11:59:56;19.70;90.50
47779;DHT22;33538;48.432;11.350;2022-09-01T12:02:26;19.70;90.70
47779;DHT22;33538;48.432;11.350;2022-09-01T12:04:54;19.80;90.90
47779;DHT22;33538;48.432;11.350;2022-09-01T12:07:38;19.80;90.50
47779;DHT22;33538;48.432;11.350;2022-09-01T12:10:17;19.80;89.40
47779;DHT22;33538;48.432;11.350;2022-09-01T12:12:44;19.80;90.60
47779;DHT22;33538;48.432;11.350;2022-09-01T12:15:19;19.90;90.20
47779;DHT22;33538;48.432;11.350;2022-09-01T12:17:46;19.90;87.00
47779;DHT22;33538;48.432;11.350;2022-09-01T12:20:19;19.90;89.10
47779;DHT22;33538;48.432;11.350;2022-09-01T12:22:47;19.90;90.20
47779;DHT22;33538;48.432;11.350;2022-09-01T12:25:19;20.00;88.00
47779;DHT22;33538;48.432;11.350;2022-09-01T12:27:47;20.00;87.90
47779;DHT22;33538;48.432;11.350;2022-09-01T12:30:14;20.00;89.20
47779;DHT22;33538;48.432;11.350;2022-09-01T12:32:41;20.00;88.40
47779;DHT22;33538;48.432;11.350;2022-09-01T12:35:14;20.00;89.10
47779;DHT22;33538;48.432;11.350;2022-09-01T12:37:41;20.00;88.10
47779;DHT22;33538;48.432;11.350;2022-09-01T12:40:23;20.00;88.20
47779;DHT22;33538;48.432;11.350;2022-09-01T12:42:51;20.00;87.30
47779;DHT22;33538;48.432;11.350;2022-09-01T12:45:39;20.00;87.60
47779;DHT22;33538;48.432;11.350;2022-09-01T12:48:18;20.10;86.90
47779;DHT22;33538;48.432;11.350;2022-09-01T12:50:48;20.10;88.70
47779;DHT22;33538;48.432;11.350;2022-09-01T12:53:21;20.10;87.90
47779;DHT22;33538;48.432;11.350;2022-09-01T12:56:01;20.00;87.90
47779;DHT22;33538;48.432;11.350;2022-09-01T12:58:29;20.10;88.00
47779;DHT22;33538;48.432;11.350;2022-09-01T13:01:00;20.10;88.00
47779;DHT22;33538;48.432;11.350;2022-09-01T13:03:28;20.10;88.00
47779;DHT22;33538;48.432;11.350;2022-09-01T13:05:56;20.10;87.50
47779;DHT22;33538;48.432;11.350;2022-09-01T13:08:26;20.10;87.70
47779;DHT22;33538;48.432;11.350;2022-09-01T13:10:55;20.20;86.10
47779;DHT22;33538;48.432;11.350;2022-09-01T13:13:24;20.20;87.20
47779;DHT22;33538;48.432;11.350;2022-09-01T13:15:53;20.20;83.20
47779;DHT22;33538;48.432;11.350;2022-09-01T13:18:22;20.20;84.30
47779;DHT22;33538;48.432;11.350;2022-09-01T13:20:50;20.30;84.00
47779;DHT22;33538;48.432;11.350;2022-09-01T13:23:18;20.20;82.00
47779;DHT22;33538;48.432;11.350;2022-09-01T13:25:46;20.20;84.60
47779;DHT22;33538;48.432;11.350;2022-09-01T13:28:16;20.30;82.40
47779;DHT22;33538;48.432;11.350;2022-09-01T13:30:44;20.20;84.40
47779;DHT22;33538;48.432;11.350;2022-09-01T13:33:13;20.20;84.50
47779;DHT22;33538;48.432;11.350;2022-09-01T13:35:46;20.20;84.90
47779;DHT22;33538;48.432;11.350;2022-09-01T13:38:13;20.20;85.30
47779;DHT22;33538;48.432;11.350;2022-09-01T13:40:40;20.20;85.40
47779;DHT22;33538;48.432;11.350;2022-09-01T13:43:07;20.20;85.50
47779;DHT22;33538;48.432;11.350;2022-09-01T13:45:36;20.30;85.10
47779;DHT22;33538;48.432;11.350;2022-09-01T13:48:02;20.30;84.70
47779;DHT22;33538;48.432;11.350;2022-09-01T13:50:47;20.30;84.70
47779;DHT22;33538;48.432;11.350;2022-09-01T13:53:34;20.30;84.30
47779;DHT22;33538;48.432;11.350;2022-09-01T13:56:01;20.30;84.60
47779;DHT22;33538;48.432;11.350;2022-09-01T13:58:28;20.20;84.60
47779;DHT22;33538;48.432;11.350;2022-09-01T14:00:57;20.30;84.60
47779;DHT22;33538;48.432;11.350;2022-09-01T14:03:23;20.30;82.00
47779;DHT22;33538;48.432;11.350;2022-09-01T14:05:50;20.40;83.00
47779;DHT22;33538;48.432;11.350;2022-09-01T14:08:19;20.40;81.10
47779;DHT22;33538;48.432;11.350;2022-09-01T14:10:48;20.40;82.70
47779;DHT22;33538;48.432;11.350;2022-09-01T14:13:16;20.30;82.90
47779;DHT22;33538;48.432;11.350;2022-09-01T14:15:43;20.40;83.00
47779;DHT22;33538;48.432;11.350;2022-09-01T14:18:12;20.30;82.20
47779;DHT22;33538;48.432;11.350;2022-09-01T14:20:42;20.30;82.80
47779;DHT22;33538;48.432;11.350;2022-09-01T14:23:09;20.40;82.90
47779;DHT22;33538;48.432;11.350;2022-09-01T14:25:36;20.40;82.70
47779;DHT22;33538;48.432;11.350;2022-09-01T14:28:06;20.40;82.40
47779;DHT22;33538;48.432;11.350;2022-09-01T14:30:33;20.40;81.80
47779;DHT22;33538;48.432;11.350;2022-09-01T14:33:01;20.50;79.50
47779;DHT22;33538;48.432;11.350;2022-09-01T14:35:29;20.50;80.70
47779;DHT22;33538;48.432;11.350;2022-09-01T14:37:56;20.50;80.90
47779;DHT22;33538;48.432;11.350;2022-09-01T14:40:23;20.50;80.80
47779;DHT22;33538;48.432;11.350;2022-09-01T14:42:51;20.50;80.90
47779;DHT22;33538;48.432;11.350;2022-09-01T14:45:20;20.50;80.40
47779;DHT22;33538;48.432;11.350;2022-09-01T14:47:47;20.50;79.60
47779;DHT22;33538;48.432;11.350;2022-09-01T14:50:15;20.50;78.90
47779;DHT22;33538;48.432;11.350;2022-09-01T14:52:51;20.60;78.70
47779;DHT22;33538;48.432;11.350;2022-09-01T14:55:19;20.60;78.30
47779;DHT22;33538;48.432;11.350;2022-09-01T14:57:45;20.60;77.70
47779;DHT22;33538;48.432;11.350;2022-09-01T15:00:13;20.60;77.80
47779;DHT22;33538;48.432;11.350;2022-09-01T15:02:41;20.60;77.10
47779;DHT22;33538;48.432;11.350;2022-09-01T15:05:10;20.60;76.70
47779;DHT22;33538;48.432;11.350;2022-09-01T15:07:38;20.60;75.80
47779;DHT22;33538;48.432;11.350;2022-09-01T15:10:09;20.60;75.40
47779;DHT22;33538;48.432;11.350;2022-09-01T15:12:41;20.70;75.10
47779;DHT22;33538;48.432;11.350;2022-09-01T15:15:09;20.70;74.80
47779;DHT22;33538;48.432;11.350;2022-09-01T15:17:36;20.70;74.90
47779;DHT22;33538;48.432;11.350;2022-09-01T15:20:04;20.70;74.40
47779;DHT22;33538;48.432;11.350;2022-09-01T15:22:31;20.80;73.90
47779;DHT22;33538;48.432;11.350;2022-09-01T15:24:58;20.80;74.10
47779;DHT22;33538;48.432;11.350;2022-09-01T15:27:26;20.70;73.80
47779;DHT22;33538;48.432;11.350;2022-09-01T15:29:53;20.80;73.20
47779;DHT22;33538;48.432;11.350;2022-09-01T15:32:20;20.80;73.20
47779;DHT22;33538;48.432;11.350;2022-09-01T15:34:54;20.80;72.80
47779;DHT22;33538;48.432;11.350;2022-09-01T15:37:20;20.80;72.40
47779;DHT22;33538;48.432;11.350;2022-09-01T15:39:47;20.80;72.60
47779;DHT22;33538;48.432;11.350;2022-09-01T15:42:14;20.80;72.40
47779;DHT22;33538;48.432;11.350;2022-09-01T15:44:47;20.90;71.60
47779;DHT22;33538;48.432;11.350;2022-09-01T15:47:14;20.90;71.40